sensor_id;sensor_type;location;lat;lon;timestamp;P1;durP1;ratioP1;P2;durP2;ratioP2
78181;SDS011;67441;50.116;8.696;2023-04-25T00:00:10;7.45;;;5.75;;
78181;SDS011;67441;50.116;8.696;2023-04-25T00:00:39;9.93;;;5.82;;
78181;SDS011;67441;50.116;8.696;2023-04-25T00:01:06;7.75;;;5.90;;
78181;SDS011;67441;50.116;8.696;2023-04-25T00:01:34;8.38;;;5.95;;
78181;SDS011;67441;50.116;8.696;2023-04-25T00:02:01;6.97;;;5.55;;
78181;SDS011;67441;50.116;8.696;2023-04-25T00:02:28;7.85;;;5.68;;
78181;SDS011;67441;50.116;8.696;2023-04-25T00:02:54;6.78;;;5.40;;
78181;SDS011;67441;50.116;8.696;2023-04-25T00:03:24;7.78;;;5.70;;
78181;SDS011;67441;50.116;8.696;2023-04-25T00:04:21;8.23;;;6.18;;
78181;SDS011;67441;50.116;8.696;2023-04-25T00:04:53;9.02;;;6.13;;
78181;SDS011;67441;50.116;8.696;2023-04-25T00:05:22;7.10;;;5.55;;
78181;SDS011;67441;50.116;8.696;2023-04-25T00:05:49;9.43;;;5.57;;
78181;SDS011;67441;50.116;8.696;2023-04-25T00:06:16;7.90;;;5.90;;
78181;SDS011;67441;50.116;8.696;2023-04-25T00:06:43;7.57;;;5.13;;
78181;SDS011;67441;50.116;8.696;2023-04-25T00:07:14;7.93;;;5.45;;
78181;SDS011;67441;50.116;8.696;2023-04-25T00:07:42;6.80;;;5.35;;
78181;SDS011;67441;50.116;8.696;2023-04-25T00:08:11;8.65;;;5.95;;
78181;SDS011;67441;50.116;8.696;2023-04-25T00:08:55;8.20;;;5.55;;
78181;SDS011;67441;50.116;8.696;2023-04-25T00:09:22;6.53;;;5.10;;
78181;SDS011;67441;50.116;8.696;2023-04-25T00:09:47;7.53;;;5.38;;
78181;SDS011;67441;50.116;8.696;2023-04-25T00:10:14;6.82;;;5.10;;
78181;SDS011;67441;50.116;8.696;2023-04-25T00:11:08;8.25;;;5.63;;
78181;SDS011;67441;50.116;8.696;2023-04-25T00:11:36;6.80;;;5.28;;
78181;SDS011;67441;50.116;8.696;2023-04-25T00:12:02;7.88;;;5.40;;
78181;SDS011;67441;50.116;8.696;2023-04-25T00:12:28;7.07;;;5.78;;
78181;SDS011;67441;50.116;8.696;2023-04-25T00:12:54;9.73;;;5.82;;
78181;SDS011;67441;50.116;8.696;2023-04-25T00:13:50;7.22;;;4.90;;
78181;SDS011;67441;50.116;8.696;2023-04-25T00:14:16;6.93;;;5.28;;
78181;SDS011;67441;50.116;8.696;2023-04-25T00:14:42;7.32;;;4.68;;
78181;SDS011;67441;50.116;8.696;2023-04-25T00:15:10;6.45;;;4.47;;
78181;SDS011;67441;50.116;8.696;2023-04-25T00:15:39;6.47;;;5.07;;
78181;SDS011;67441;50.116;8.696;2023-04-25T00:16:19;7.30;;;5.00;;
78181;SDS011;67441;50.116;8.696;2023-04-25T00:16:57;6.60;;;4.88;;
78181;SDS011;67441;50.116;8.696;2023-04-25T00:17:27;6.80;;;4.97;;
78181;SDS011;67441;50.116;8.696;2023-04-25T00:18:34;7.05;;;4.93;;
78181;SDS011;67441;50.116;8.696;2023-04-25T00:19:21;7.13;;;4.82;;
78181;SDS011;67441;50.116;8.696;2023-04-25T00:20:22;7.55;;;5.20;;
78181;SDS011;67441;50.116;8.696;2023-04-25T00:21:02;6.40;;;4.90;;
78181;SDS011;67441;50.116;8.696;2023-04-25T00:21:31;8.43;;;5.95;;
78181;SDS011;67441;50.116;8.696;2023-04-25T00:22:15;6.80;;;5.30;;
78181;SDS011;67441;50.116;8.696;2023-04-25T00:22:49;7.38;;;4.82;;
78181;SDS011;67441;50.116;8.696;2023-04-25T00:23:27;6.93;;;5.00;;
78181;SDS011;67441;50.116;8.696;2023-04-25T00:23:55;5.97;;;4.63;;
78181;SDS011;67441;50.116;8.696;2023-04-25T00:24:27;6.75;;;5.18;;
78181;SDS011;67441;50.116;8.696;2023-04-25T00:24:52;6.03;;;4.97;;
78181;SDS011;67441;50.116;8.696;2023-04-25T00:25:18;6.72;;;4.70;;
78181;SDS011;67441;50.116;8.696;2023-04-25T00:25:47;7.40;;;4.85;;
78181;SDS011;67441;50.116;8.696;2023-04-25T00:26:16;7.47;;;4.50;;
78181;SDS011;67441;50.116;8.696;2023-04-25T00:27:08;5.63;;;4.50;;
78181;SDS011;67441;50.116;8.696;2023-04-25T00:27:34;5.35;;;4.80;;
78181;SDS011;67441;50.116;8.696;2023-04-25T00:27:59;7.03;;;4.57;;
78181;SDS011;67441;50.116;8.696;2023-04-25T00:28:28;5.93;;;4.50;;
78181;SDS011;67441;50.116;8.696;2023-04-25T00:29:19;5.53;;;4.30;;
78181;SDS011;67441;50.116;8.696;2023-04-25T00:29:47;5.40;;;4.20;;
78181;SDS011;67441;50.116;8.696;2023-04-25T00:30:13;6.75;;;5.15;;
78181;SDS011;67441;50.116;8.696;2023-04-25T00:30:41;5.70;;;4.43;;
78181;SDS011;67441;50.116;8.696;2023-04-25T00:31:13;9.25;;;4.20;;
78181;SDS011;67441;50.116;8.696;2023-04-25T00:31:59;5.72;;;4.35;;
78181;SDS011;67441;50.116;8.696;2023-04-25T00:33:16;6.15;;;4.63;;
78181;SDS011;67441;50.116;8.696;2023-04-25T00:34:24;6.45;;;4.70;;
78181;SDS011;67441;50.116;8.696;2023-04-25T00:36:07;6.30;;;4.97;;
78181;SDS011;67441;50.116;8.696;2023-04-25T00:38:42;6.65;;;5.32;;
78181;SDS011;67441;50.116;8.696;2023-04-25T00:39:14;6.10;;;4.80;;
78181;SDS011;67441;50.116;8.696;2023-04-25T00:39:45;7.05;;;5.15;;
78181;SDS011;67441;50.116;8.696;2023-04-25T00:40:17;6.50;;;5.22;;
78181;SDS011;67441;50.116;8.696;2023-04-25T00:40:51;5.60;;;4.28;;
78181;SDS011;67441;50.116;8.696;2023-04-25T00:41:31;7.10;;;4.80;;
78181;SDS011;67441;50.116;8.696;2023-04-25T00:42:01;5.82;;;4.47;;
78181;SDS011;67441;50.116;8.696;2023-04-25T00:42:43;5.70;;;4.70;;
78181;SDS011;67441;50.116;8.696;2023-04-25T00:43:30;6.80;;;4.20;;
78181;SDS011;67441;50.116;8.696;2023-04-25T00:44:11;6.55;;;4.78;;
78181;SDS011;67441;50.116;8.696;2023-04-25T00:44:58;7.35;;;4.90;;
78181;SDS011;67441;50.116;8.696;2023-04-25T00:46:02;6.72;;;4.88;;
78181;SDS011;67441;50.116;8.696;2023-04-25T00:46:36;7.65;;;5.07;;
78181;SDS011;67441;50.116;8.696;2023-04-25T00:47:02;7.18;;;5.07;;
78181;SDS011;67441;50.116;8.696;2023-04-25T00:47:32;6.10;;;5.35;;
78181;SDS011;67441;50.116;8.696;2023-04-25T00:49:20;6.50;;;5.22;;
78181;SDS011;67441;50.116;8.696;2023-04-25T00:50:09;7.43;;;5.47;;
78181;SDS011;67441;50.116;8.696;2023-04-25T00:50:39;7.05;;;5.22;;
78181;SDS011;67441;50.116;8.696;2023-04-25T00:51:17;6.25;;;4.68;;
78181;SDS011;67441;50.116;8.696;2023-04-25T00:51:51;6.57;;;4.93;;
78181;SDS011;67441;50.116;8.696;2023-04-25T00:52:18;7.45;;;5.40;;
78181;SDS011;67441;50.116;8.696;2023-04-25T00:52:45;7.45;;;5.05;;
78181;SDS011;67441;50.116;8.696;2023-04-25T00:53:14;10.00;;;5.22;;
78181;SDS011;67441;50.116;8.696;2023-04-25T00:53:43;6.95;;;5.07;;
78181;SDS011;67441;50.116;8.696;2023-04-25T00:54:10;6.78;;;4.60;;
78181;SDS011;67441;50.116;8.696;2023-04-25T00:54:45;6.30;;;4.70;;
78181;SDS011;67441;50.116;8.696;2023-04-25T00:55:11;7.10;;;5.15;;
78181;SDS011;67441;50.116;8.696;2023-04-25T00:55:58;7.68;;;5.30;;
78181;SDS011;67441;50.116;8.696;2023-04-25T00:56:35;7.75;;;5.03;;
78181;SDS011;67441;50.116;8.696;2023-04-25T00:57:56;7.55;;;5.50;;
78181;SDS011;67441;50.116;8.696;2023-04-25T00:58:55;7.07;;;5.25;;
78181;SDS011;67441;50.116;8.696;2023-04-25T00:59:37;6.65;;;5.05;;
78181;SDS011;67441;50.116;8.696;2023-04-25T01:00:19;7.05;;;5.20;;
78181;SDS011;67441;50.116;8.696;2023-04-25T01:01:53;7.10;;;5.22;;
78181;SDS011;67441;50.116;8.696;2023-04-25T01:02:25;7.95;;;5.20;;
78181;SDS011;67441;50.116;8.696;2023-04-25T01:03:09;7.38;;;5.38;;
78181;SDS011;67441;50.116;8.696;2023-04-25T01:05:10;7.18;;;5.47;;
78181;SDS011;67441;50.116;8.696;2023-04-25T01:05:59;6.57;;;5.30;;
78181;SDS011;67441;50.116;8.696;2023-04-25T01:07:51;8.07;;;5.30;;
78181;SDS011;67441;50.116;8.696;2023-04-25T01:08:42;7.10;;;5.15;;
78181;SDS011;67441;50.116;8.696;2023-04-25T01:09:39;7.40;;;5.43;;
78181;SDS011;67441;50.116;8.696;2023-04-25T01:10:53;7.47;;;5.25;;
78181;SDS011;67441;50.116;8.696;2023-04-25T01:11:53;7.30;;;4.95;;
78181;SDS011;67441;50.116;8.696;2023-04-25T01:12:30;7.70;;;5.50;;
78181;SDS011;67441;50.116;8.696;2023-04-25T01:12:59;7.75;;;5.30;;
78181;SDS011;67441;50.116;8.696;2023-04-25T01:14:50;7.72;;;5.25;;
78181;SDS011;67441;50.116;8.696;2023-04-25T01:18:31;7.65;;;5.35;;
78181;SDS011;67441;50.116;8.696;2023-04-25T01:19:35;7.03;;;5.22;;
78181;SDS011;67441;50.116;8.696;2023-04-25T01:22:20;6.65;;;5.75;;
78181;SDS011;67441;50.116;8.696;2023-04-25T01:22:58;7.70;;;5.30;;
78181;SDS011;67441;50.116;8.696;2023-04-25T01:25:27;7.18;;;5.35;;
78181;SDS011;67441;50.116;8.696;2023-04-25T01:26:11;6.63;;;5.13;;
78181;SDS011;67441;50.116;8.696;2023-04-25T01:27:03;7.82;;;5.45;;
78181;SDS011;67441;50.116;8.696;2023-04-25T01:28:08;5.65;;;4.35;;
78181;SDS011;67441;50.116;8.696;2023-04-25T01:28:56;5.80;;;4.57;;
78181;SDS011;67441;50.116;8.696;2023-04-25T01:30:03;6.28;;;4.43;;
78181;SDS011;67441;50.116;8.696;2023-04-25T01:30:49;5.50;;;4.43;;
78181;SDS011;67441;50.116;8.696;2023-04-25T01:31:34;5.72;;;4.30;;
78181;SDS011;67441;50.116;8.696;2023-04-25T01:33:04;6.55;;;4.93;;
78181;SDS011;67441;50.116;8.696;2023-04-25T01:34:29;6.32;;;4.57;;
78181;SDS011;67441;50.116;8.696;2023-04-25T01:35:12;7.88;;;4.60;;
78181;SDS011;67441;50.116;8.696;2023-04-25T01:37:09;5.55;;;4.28;;
78181;SDS011;67441;50.116;8.696;2023-04-25T01:37:40;4.53;;;3.78;;
78181;SDS011;67441;50.116;8.696;2023-04-25T01:40:49;6.97;;;4.55;;
78181;SDS011;67441;50.116;8.696;2023-04-25T01:41:26;6.45;;;4.47;;
78181;SDS011;67441;50.116;8.696;2023-04-25T01:42:50;6.03;;;4.82;;
78181;SDS011;67441;50.116;8.696;2023-04-25T01:56:54;5.25;;;4.05;;
78181;SDS011;67441;50.116;8.696;2023-04-25T02:00:47;5.93;;;4.00;;
78181;SDS011;67441;50.116;8.696;2023-04-25T02:02:31;5.05;;;3.85;;
78181;SDS011;67441;50.116;8.696;2023-04-25T02:09:07;7.30;;;4.00;;
78181;SDS011;67441;50.116;8.696;2023-04-25T02:10:14;5.32;;;3.70;;
78181;SDS011;67441;50.116;8.696;2023-04-25T02:11:05;5.82;;;4.50;;
78181;SDS011;67441;50.116;8.696;2023-04-25T02:12:11;5.70;;;4.43;;
78181;SDS011;67441;50.116;8.696;2023-04-25T02:12:54;6.22;;;4.13;;
78181;SDS011;67441;50.116;8.696;2023-04-25T02:13:39;5.97;;;4.35;;
78181;SDS011;67441;50.116;8.696;2023-04-25T02:14:16;6.30;;;4.07;;
78181;SDS011;67441;50.116;8.696;2023-04-25T02:14:57;5.30;;;4.15;;
78181;SDS011;67441;50.116;8.696;2023-04-25T02:15:59;6.15;;;4.20;;
78181;SDS011;67441;50.116;8.696;2023-04-25T02:18:24;6.60;;;4.30;;
78181;SDS011;67441;50.116;8.696;2023-04-25T02:18:57;5.68;;;4.07;;
78181;SDS011;67441;50.116;8.696;2023-04-25T02:21:59;5.07;;;4.28;;
78181;SDS011;67441;50.116;8.696;2023-04-25T02:22:44;6.43;;;4.47;;
78181;SDS011;67441;50.116;8.696;2023-04-25T02:23:31;6.25;;;4.35;;
78181;SDS011;67441;50.116;8.696;2023-04-25T02:24:23;7.45;;;4.40;;
78181;SDS011;67441;50.116;8.696;2023-04-25T02:25:05;5.53;;;4.20;;
78181;SDS011;67441;50.116;8.696;2023-04-25T02:26:14;6.60;;;4.15;;
78181;SDS011;67441;50.116;8.696;2023-04-25T02:26:53;5.30;;;4.32;;
78181;SDS011;67441;50.116;8.696;2023-04-25T02:27:35;6.65;;;4.32;;
78181;SDS011;67441;50.116;8.696;2023-04-25T02:28:39;6.50;;;4.72;;
78181;SDS011;67441;50.116;8.696;2023-04-25T02:30:37;7.78;;;4.90;;
78181;SDS011;67441;50.116;8.696;2023-04-25T02:31:20;6.97;;;5.10;;
78181;SDS011;67441;50.116;8.696;2023-04-25T02:32:02;8.77;;;4.95;;
78181;SDS011;67441;50.116;8.696;2023-04-25T02:32:39;5.47;;;4.78;;
78181;SDS011;67441;50.116;8.696;2023-04-25T02:33:17;7.82;;;4.90;;
78181;SDS011;67441;50.116;8.696;2023-04-25T02:33:55;5.57;;;4.80;;
78181;SDS011;67441;50.116;8.696;2023-04-25T02:34:46;5.80;;;4.57;;
78181;SDS011;67441;50.116;8.696;2023-04-25T02:35:28;7.88;;;4.70;;
78181;SDS011;67441;50.116;8.696;2023-04-25T02:36:14;7.03;;;4.82;;
78181;SDS011;67441;50.116;8.696;2023-04-25T02:36:51;6.40;;;4.72;;
78181;SDS011;67441;50.116;8.696;2023-04-25T02:37:38;6.57;;;5.20;;
78181;SDS011;67441;50.116;8.696;2023-04-25T02:38:05;9.35;;;5.43;;
78181;SDS011;67441;50.116;8.696;2023-04-25T02:38:34;9.25;;;5.55;;
78181;SDS011;67441;50.116;8.696;2023-04-25T02:39:09;6.93;;;5.38;;
78181;SDS011;67441;50.116;8.696;2023-04-25T02:39:40;6.35;;;5.07;;
78181;SDS011;67441;50.116;8.696;2023-04-25T02:40:18;7.40;;;4.97;;
78181;SDS011;67441;50.116;8.696;2023-04-25T02:40:47;6.95;;;4.85;;
78181;SDS011;67441;50.116;8.696;2023-04-25T02:41:38;7.93;;;5.15;;
78181;SDS011;67441;50.116;8.696;2023-04-25T02:43:12;7.63;;;4.90;;
78181;SDS011;67441;50.116;8.696;2023-04-25T02:45:08;6.50;;;5.15;;
78181;SDS011;67441;50.116;8.696;2023-04-25T02:45:20;7.57;;;5.57;;
78181;SDS011;67441;50.116;8.696;2023-04-25T02:46:43;9.90;;;5.50;;
78181;SDS011;67441;50.116;8.696;2023-04-25T02:47:41;8.07;;;5.95;;
78181;SDS011;67441;50.116;8.696;2023-04-25T02:48:28;6.55;;;5.32;;
78181;SDS011;67441;50.116;8.696;2023-04-25T02:49:22;7.57;;;5.30;;
78181;SDS011;67441;50.116;8.696;2023-04-25T02:50:14;8.43;;;6.05;;
78181;SDS011;67441;50.116;8.696;2023-04-25T02:50:42;8.00;;;5.63;;
78181;SDS011;67441;50.116;8.696;2023-04-25T02:51:36;9.82;;;6.00;;
78181;SDS011;67441;50.116;8.696;2023-04-25T02:52:20;9.30;;;5.85;;
78181;SDS011;67441;50.116;8.696;2023-04-25T02:53:50;6.90;;;5.45;;
78181;SDS011;67441;50.116;8.696;2023-04-25T02:54:29;9.68;;;5.95;;
78181;SDS011;67441;50.116;8.696;2023-04-25T02:55:04;9.25;;;5.55;;
78181;SDS011;67441;50.116;8.696;2023-04-25T02:55:40;9.07;;;5.70;;
78181;SDS011;67441;50.116;8.696;2023-04-25T02:56:17;8.70;;;5.55;;
78181;SDS011;67441;50.116;8.696;2023-04-25T02:56:59;9.63;;;5.75;;
78181;SDS011;67441;50.116;8.696;2023-04-25T02:57:40;8.60;;;5.72;;
78181;SDS011;67441;50.116;8.696;2023-04-25T02:58:44;8.13;;;5.40;;
78181;SDS011;67441;50.116;8.696;2023-04-25T02:59:20;8.00;;;5.50;;
78181;SDS011;67441;50.116;8.696;2023-04-25T02:59:55;7.07;;;5.22;;
78181;SDS011;67441;50.116;8.696;2023-04-25T03:01:13;8.63;;;5.90;;
78181;SDS011;67441;50.116;8.696;2023-04-25T03:01:53;9.30;;;5.82;;
78181;SDS011;67441;50.116;8.696;2023-04-25T03:02:59;7.53;;;5.47;;
78181;SDS011;67441;50.116;8.696;2023-04-25T03:03:43;8.30;;;5.82;;
78181;SDS011;67441;50.116;8.696;2023-04-25T03:04:40;8.27;;;6.00;;
78181;SDS011;67441;50.116;8.696;2023-04-25T03:05:12;8.93;;;6.22;;
78181;SDS011;67441;50.116;8.696;2023-04-25T03:05:41;9.32;;;6.05;;
78181;SDS011;67441;50.116;8.696;2023-04-25T03:06:07;8.88;;;5.95;;
78181;SDS011;67441;50.116;8.696;2023-04-25T03:06:44;8.70;;;6.07;;
78181;SDS011;67441;50.116;8.696;2023-04-25T03:07:28;9.65;;;5.68;;
78181;SDS011;67441;50.116;8.696;2023-04-25T03:09:02;7.97;;;5.75;;
78181;SDS011;67441;50.116;8.696;2023-04-25T03:10:07;9.02;;;6.00;;
78181;SDS011;67441;50.116;8.696;2023-04-25T03:10:56;8.70;;;6.00;;
78181;SDS011;67441;50.116;8.696;2023-04-25T03:12:12;9.40;;;6.03;;
78181;SDS011;67441;50.116;8.696;2023-04-25T03:13:39;8.38;;;5.88;;
78181;SDS011;67441;50.116;8.696;2023-04-25T03:14:28;8.73;;;5.82;;
78181;SDS011;67441;50.116;8.696;2023-04-25T03:16:33;7.28;;;5.68;;
78181;SDS011;67441;50.116;8.696;2023-04-25T03:17:29;10.23;;;6.30;;
78181;SDS011;67441;50.116;8.696;2023-04-25T03:17:55;9.90;;;6.55;;
78181;SDS011;67441;50.116;8.696;2023-04-25T03:18:34;10.15;;;6.90;;
78181;SDS011;67441;50.116;8.696;2023-04-25T03:19:12;9.25;;;6.30;;
78181;SDS011;67441;50.116;8.696;2023-04-25T03:19:55;9.15;;;6.35;;
78181;SDS011;67441;50.116;8.696;2023-04-25T03:20:30;11.15;;;6.13;;
78181;SDS011;67441;50.116;8.696;2023-04-25T03:21:31;9.23;;;5.72;;
78181;SDS011;67441;50.116;8.696;2023-04-25T03:22:38;9.48;;;6.07;;
78181;SDS011;67441;50.116;8.696;2023-04-25T03:26:01;7.88;;;6.07;;
78181;SDS011;67441;50.116;8.696;2023-04-25T03:26:48;8.07;;;6.35;;
78181;SDS011;67441;50.116;8.696;2023-04-25T03:28:03;9.40;;;6.63;;
78181;SDS011;67441;50.116;8.696;2023-04-25T03:29:20;8.40;;;6.28;;
78181;SDS011;67441;50.116;8.696;2023-04-25T03:33:57;10.65;;;6.72;;
78181;SDS011;67441;50.116;8.696;2023-04-25T03:41:20;10.20;;;6.88;;
78181;SDS011;67441;50.116;8.696;2023-04-25T03:43:02;10.60;;;7.20;;
78181;SDS011;67441;50.116;8.696;2023-04-25T03:43:41;10.13;;;6.30;;
78181;SDS011;67441;50.116;8.696;2023-04-25T03:44:18;9.10;;;6.72;;
78181;SDS011;67441;50.116;8.696;2023-04-25T03:44:55;9.73;;;6.72;;
78181;SDS011;67441;50.116;8.696;2023-04-25T03:47:34;9.45;;;6.28;;
78181;SDS011;67441;50.116;8.696;2023-04-25T03:48:12;12.70;;;6.80;;
78181;SDS011;67441;50.116;8.696;2023-04-25T03:49:08;7.97;;;6.13;;
78181;SDS011;67441;50.116;8.696;2023-04-25T03:50:30;10.38;;;6.18;;
78181;SDS011;67441;50.116;8.696;2023-04-25T03:51:25;11.40;;;6.82;;
78181;SDS011;67441;50.116;8.696;2023-04-25T03:52:17;9.52;;;6.55;;
78181;SDS011;67441;50.116;8.696;2023-04-25T03:55:03;9.20;;;6.07;;
78181;SDS011;67441;50.116;8.696;2023-04-25T04:01:27;8.90;;;5.97;;
78181;SDS011;67441;50.116;8.696;2023-04-25T04:02:51;10.80;;;6.57;;
78181;SDS011;67441;50.116;8.696;2023-04-25T04:03:51;9.43;;;6.47;;
78181;SDS011;67441;50.116;8.696;2023-04-25T04:06:13;10.98;;;6.18;;
78181;SDS011;67441;50.116;8.696;2023-04-25T04:06:56;9.50;;;6.60;;
78181;SDS011;67441;50.116;8.696;2023-04-25T04:09:26;9.88;;;6.70;;
78181;SDS011;67441;50.116;8.696;2023-04-25T04:11:34;9.32;;;6.95;;
78181;SDS011;67441;50.116;8.696;2023-04-25T04:12:20;9.70;;;6.47;;
78181;SDS011;67441;50.116;8.696;2023-04-25T04:13:28;11.52;;;6.50;;
78181;SDS011;67441;50.116;8.696;2023-04-25T04:14:00;9.07;;;6.32;;
78181;SDS011;67441;50.116;8.696;2023-04-25T04:14:54;11.38;;;6.63;;
78181;SDS011;67441;50.116;8.696;2023-04-25T04:17:07;10.77;;;6.68;;
78181;SDS011;67441;50.116;8.696;2023-04-25T04:18:28;10.50;;;6.53;;
78181;SDS011;67441;50.116;8.696;2023-04-25T04:19:11;10.77;;;6.75;;
78181;SDS011;67441;50.116;8.696;2023-04-25T04:19:52;8.80;;;6.47;;
78181;SDS011;67441;50.116;8.696;2023-04-25T04:20:31;10.75;;;6.97;;
78181;SDS011;67441;50.116;8.696;2023-04-25T04:21:08;10.38;;;7.03;;
78181;SDS011;67441;50.116;8.696;2023-04-25T04:22:03;9.20;;;6.35;;
78181;SDS011;67441;50.116;8.696;2023-04-25T04:22:34;12.02;;;6.60;;
78181;SDS011;67441;50.116;8.696;2023-04-25T04:23:09;11.52;;;6.13;;
78181;SDS011;67441;50.116;8.696;2023-04-25T04:23:44;9.88;;;6.63;;
78181;SDS011;67441;50.116;8.696;2023-04-25T04:26:47;9.60;;;6.50;;
78181;SDS011;67441;50.116;8.696;2023-04-25T04:27:27;9.52;;;6.25;;
78181;SDS011;67441;50.116;8.696;2023-04-25T04:28:04;11.35;;;6.13;;
78181;SDS011;67441;50.116;8.696;2023-04-25T04:28:36;11.45;;;6.25;;
78181;SDS011;67441;50.116;8.696;2023-04-25T04:29:12;9.73;;;5.63;;
78181;SDS011;67441;50.116;8.696;2023-04-25T04:30:50;9.60;;;5.68;;
78181;SDS011;67441;50.116;8.696;2023-04-25T04:31:17;13.32;;;6.85;;
78181;SDS011;67441;50.116;8.696;2023-04-25T04:31:44;12.15;;;6.55;;
78181;SDS011;67441;50.116;8.696;2023-04-25T04:32:35;11.85;;;6.15;;
78181;SDS011;67441;50.116;8.696;2023-04-25T04:33:26;8.68;;;6.50;;
78181;SDS011;67441;50.116;8.696;2023-04-25T04:34:17;9.60;;;6.72;;
78181;SDS011;67441;50.116;8.696;2023-04-25T04:35:08;9.85;;;6.25;;
78181;SDS011;67441;50.116;8.696;2023-04-25T04:35:59;10.55;;;6.70;;
78181;SDS011;67441;50.116;8.696;2023-04-25T04:36:25;10.35;;;6.10;;
78181;SDS011;67441;50.116;8.696;2023-04-25T04:37:16;10.02;;;6.13;;
78181;SDS011;67441;50.116;8.696;2023-04-25T04:37:42;9.68;;;6.20;;
78181;SDS011;67441;50.116;8.696;2023-04-25T04:38:09;9.48;;;5.72;;
78181;SDS011;67441;50.116;8.696;2023-04-25T04:38:35;8.65;;;5.28;;
78181;SDS011;67441;50.116;8.696;2023-04-25T04:39:28;10.10;;;5.88;;
78181;SDS011;67441;50.116;8.696;2023-04-25T04:39:53;7.07;;;5.18;;
78181;SDS011;67441;50.116;8.696;2023-04-25T04:40:19;11.57;;;5.97;;
78181;SDS011;67441;50.116;8.696;2023-04-25T04:40:45;10.55;;;5.43;;
78181;SDS011;67441;50.116;8.696;2023-04-25T04:41:11;9.93;;;5.60;;
78181;SDS011;67441;50.116;8.696;2023-04-25T04:42:01;9.60;;;5.55;;
78181;SDS011;67441;50.116;8.696;2023-04-25T04:42:28;7.22;;;4.97;;
78181;SDS011;67441;50.116;8.696;2023-04-25T04:42:54;8.07;;;5.20;;
78181;SDS011;67441;50.116;8.696;2023-04-25T04:43:21;9.30;;;5.18;;
78181;SDS011;67441;50.116;8.696;2023-04-25T04:43:47;9.18;;;4.88;;
78181;SDS011;67441;50.116;8.696;2023-04-25T04:44:13;8.57;;;5.45;;
78181;SDS011;67441;50.116;8.696;2023-04-25T04:45:04;9.75;;;5.25;;
78181;SDS011;67441;50.116;8.696;2023-04-25T04:45:55;9.23;;;5.07;;
78181;SDS011;67441;50.116;8.696;2023-04-25T04:46:21;10.35;;;4.38;;
78181;SDS011;67441;50.116;8.696;2023-04-25T04:46:47;10.18;;;4.85;;
78181;SDS011;67441;50.116;8.696;2023-04-25T04:47:13;8.07;;;4.72;;
78181;SDS011;67441;50.116;8.696;2023-04-25T04:48:05;8.32;;;5.07;;
78181;SDS011;67441;50.116;8.696;2023-04-25T04:48:31;8.25;;;4.55;;
78181;SDS011;67441;50.116;8.696;2023-04-25T04:48:59;8.45;;;4.80;;
78181;SDS011;67441;50.116;8.696;2023-04-25T04:49:51;10.68;;;4.63;;
78181;SDS011;67441;50.116;8.696;2023-04-25T04:50:44;10.05;;;4.88;;
78181;SDS011;67441;50.116;8.696;2023-04-25T04:51:10;9.63;;;4.88;;
78181;SDS011;67441;50.116;8.696;2023-04-25T04:52:01;8.45;;;4.60;;
78181;SDS011;67441;50.116;8.696;2023-04-25T04:52:52;9.57;;;4.78;;
78181;SDS011;67441;50.116;8.696;2023-04-25T04:53:43;8.02;;;4.38;;
78181;SDS011;67441;50.116;8.696;2023-04-25T04:54:08;10.90;;;5.35;;
78181;SDS011;67441;50.116;8.696;2023-04-25T04:55:00;9.27;;;4.93;;
78181;SDS011;67441;50.116;8.696;2023-04-25T04:55:51;11.15;;;5.32;;
78181;SDS011;67441;50.116;8.696;2023-04-25T04:56:42;9.63;;;5.47;;
78181;SDS011;67441;50.116;8.696;2023-04-25T04:57:08;10.32;;;4.82;;
78181;SDS011;67441;50.116;8.696;2023-04-25T04:58:00;9.90;;;4.95;;
78181;SDS011;67441;50.116;8.696;2023-04-25T04:58:54;11.45;;;5.35;;
78181;SDS011;67441;50.116;8.696;2023-04-25T04:59:19;8.45;;;4.82;;
78181;SDS011;67441;50.116;8.696;2023-04-25T05:00:11;9.73;;;4.93;;
78181;SDS011;67441;50.116;8.696;2023-04-25T05:01:03;11.73;;;4.63;;
78181;SDS011;67441;50.116;8.696;2023-04-25T05:01:56;12.35;;;4.90;;
78181;SDS011;67441;50.116;8.696;2023-04-25T05:02:47;8.70;;;5.10;;
78181;SDS011;67441;50.116;8.696;2023-04-25T05:03:38;11.40;;;4.50;;
78181;SDS011;67441;50.116;8.696;2023-04-25T05:04:28;11.32;;;5.10;;
78181;SDS011;67441;50.116;8.696;2023-04-25T05:04:55;11.93;;;4.57;;
78181;SDS011;67441;50.116;8.696;2023-04-25T05:05:21;11.00;;;4.80;;
78181;SDS011;67441;50.116;8.696;2023-04-25T05:06:12;7.95;;;4.45;;
78181;SDS011;67441;50.116;8.696;2023-04-25T05:07:03;10.75;;;5.32;;
78181;SDS011;67441;50.116;8.696;2023-04-25T05:07:28;9.70;;;4.97;;
78181;SDS011;67441;50.116;8.696;2023-04-25T05:08:19;9.57;;;4.90;;
78181;SDS011;67441;50.116;8.696;2023-04-25T05:09:10;7.75;;;4.72;;
78181;SDS011;67441;50.116;8.696;2023-04-25T05:10:00;11.20;;;4.97;;
78181;SDS011;67441;50.116;8.696;2023-04-25T05:10:51;7.38;;;4.68;;
78181;SDS011;67441;50.116;8.696;2023-04-25T05:11:42;9.60;;;5.07;;
78181;SDS011;67441;50.116;8.696;2023-04-25T05:12:34;10.15;;;4.68;;
78181;SDS011;67441;50.116;8.696;2023-04-25T05:13:25;7.43;;;4.75;;
78181;SDS011;67441;50.116;8.696;2023-04-25T05:14:17;11.45;;;5.30;;
78181;SDS011;67441;50.116;8.696;2023-04-25T05:15:11;9.05;;;4.50;;
78181;SDS011;67441;50.116;8.696;2023-04-25T05:16:02;11.35;;;5.35;;
78181;SDS011;67441;50.116;8.696;2023-04-25T05:16:53;12.00;;;6.10;;
78181;SDS011;67441;50.116;8.696;2023-04-25T05:17:43;7.95;;;4.85;;
78181;SDS011;67441;50.116;8.696;2023-04-25T05:18:09;8.82;;;4.57;;
78181;SDS011;67441;50.116;8.696;2023-04-25T05:19:00;9.13;;;4.72;;
78181;SDS011;67441;50.116;8.696;2023-04-25T05:19:51;10.80;;;4.78;;
78181;SDS011;67441;50.116;8.696;2023-04-25T05:20:17;7.50;;;4.80;;
78181;SDS011;67441;50.116;8.696;2023-04-25T05:20:44;10.88;;;4.68;;
78181;SDS011;67441;50.116;8.696;2023-04-25T05:21:35;9.60;;;4.60;;
78181;SDS011;67441;50.116;8.696;2023-04-25T05:22:26;11.38;;;4.70;;
78181;SDS011;67441;50.116;8.696;2023-04-25T05:23:16;7.28;;;4.22;;
78181;SDS011;67441;50.116;8.696;2023-04-25T05:24:07;9.02;;;4.25;;
78181;SDS011;67441;50.116;8.696;2023-04-25T05:24:58;8.10;;;4.30;;
78181;SDS011;67441;50.116;8.696;2023-04-25T05:25:49;9.05;;;4.55;;
78181;SDS011;67441;50.116;8.696;2023-04-25T05:26:40;6.95;;;4.70;;
78181;SDS011;67441;50.116;8.696;2023-04-25T05:27:06;9.35;;;4.63;;
78181;SDS011;67441;50.116;8.696;2023-04-25T05:27:57;8.40;;;4.32;;
78181;SDS011;67441;50.116;8.696;2023-04-25T05:28:48;9.65;;;4.38;;
78181;SDS011;67441;50.116;8.696;2023-04-25T05:29:15;9.68;;;4.82;;
78181;SDS011;67441;50.116;8.696;2023-04-25T05:30:06;9.18;;;4.45;;
78181;SDS011;67441;50.116;8.696;2023-04-25T05:30:34;10.75;;;4.47;;
78181;SDS011;67441;50.116;8.696;2023-04-25T05:31:29;6.13;;;3.92;;
78181;SDS011;67441;50.116;8.696;2023-04-25T05:32:20;7.10;;;3.63;;
78181;SDS011;67441;50.116;8.696;2023-04-25T05:32:46;10.60;;;4.10;;
78181;SDS011;67441;50.116;8.696;2023-04-25T05:33:37;8.23;;;4.03;;
78181;SDS011;67441;50.116;8.696;2023-04-25T05:34:28;7.60;;;4.30;;
78181;SDS011;67441;50.116;8.696;2023-04-25T05:34:54;8.98;;;4.18;;
78181;SDS011;67441;50.116;8.696;2023-04-25T05:35:44;5.22;;;3.40;;
78181;SDS011;67441;50.116;8.696;2023-04-25T05:36:35;6.82;;;3.47;;
78181;SDS011;67441;50.116;8.696;2023-04-25T05:37:28;8.65;;;4.05;;
78181;SDS011;67441;50.116;8.696;2023-04-25T05:37:56;8.32;;;4.30;;
78181;SDS011;67441;50.116;8.696;2023-04-25T05:38:47;7.85;;;3.60;;
78181;SDS011;67441;50.116;8.696;2023-04-25T05:39:38;8.55;;;3.75;;
78181;SDS011;67441;50.116;8.696;2023-04-25T05:40:09;5.25;;;3.88;;
78181;SDS011;67441;50.116;8.696;2023-04-25T05:40:35;7.35;;;3.80;;
78181;SDS011;67441;50.116;8.696;2023-04-25T05:41:01;5.72;;;3.55;;
78181;SDS011;67441;50.116;8.696;2023-04-25T05:41:52;9.75;;;3.90;;
78181;SDS011;67441;50.116;8.696;2023-04-25T05:42:43;6.95;;;3.45;;